Terminal Aerodrome Forecast
Issued by NWS

Home | Current Version | Previous Version | Text Only | Print | Product List | Glossary On
Versions: 1 2 3 4 5 6 7 8 9 10 11 12 13 14 15 16
000
FTUS41 KBTV 201845 AAA
TAFRUT
TAF AMD
KRUT 201845Z 2019/2118 26007KT P6SM VCSH BKN120
      TEMPO 2019/2020 3SM TSRA BR BKN030CB
     FM210200 VRB03KT P6SM SCT150=

USA.gov is the U.S. government's official web portal to all federal, state and local government web resources and services.